sensor_id;sensor_type;location;lat;lon;timestamp;P1;durP1;ratioP1;P2;durP2;ratioP2
6344;SDS011;3205;42.666;23.264;2023-04-01T00:00:07;24.83;;;9.47;;
6344;SDS011;3205;42.666;23.264;2023-04-01T00:02:34;23.43;;;10.20;;
6344;SDS011;3205;42.666;23.264;2023-04-01T00:05:01;26.87;;;8.70;;
6344;SDS011;3205;42.666;23.264;2023-04-01T00:07:27;18.03;;;9.07;;
6344;SDS011;3205;42.666;23.264;2023-04-01T00:09:53;22.83;;;9.63;;
6344;SDS011;3205;42.666;23.264;2023-04-01T00:12:19;25.40;;;9.60;;
6344;SDS011;3205;42.666;23.264;2023-04-01T00:14:45;23.97;;;10.17;;
6344;SDS011;3205;42.666;23.264;2023-04-01T00:17:12;29.00;;;10.20;;
6344;SDS011;3205;42.666;23.264;2023-04-01T00:19:38;22.40;;;10.63;;
6344;SDS011;3205;42.666;23.264;2023-04-01T00:22:04;27.10;;;11.50;;
6344;SDS011;3205;42.666;23.264;2023-04-01T00:24:31;28.10;;;12.10;;
6344;SDS011;3205;42.666;23.264;2023-04-01T00:26:57;29.97;;;11.97;;
6344;SDS011;3205;42.666;23.264;2023-04-01T00:29:23;32.60;;;13.80;;
6344;SDS011;3205;42.666;23.264;2023-04-01T00:31:49;36.40;;;15.13;;
6344;SDS011;3205;42.666;23.264;2023-04-01T00:34:16;30.07;;;14.67;;
6344;SDS011;3205;42.666;23.264;2023-04-01T00:36:42;34.50;;;13.73;;
6344;SDS011;3205;42.666;23.264;2023-04-01T00:39:08;34.50;;;14.97;;
6344;SDS011;3205;42.666;23.264;2023-04-01T00:41:35;29.80;;;14.10;;
6344;SDS011;3205;42.666;23.264;2023-04-01T00:44:17;29.03;;;12.83;;
6344;SDS011;3205;42.666;23.264;2023-04-01T00:46:45;36.07;;;13.97;;
6344;SDS011;3205;42.666;23.264;2023-04-01T00:49:11;30.17;;;13.93;;
6344;SDS011;3205;42.666;23.264;2023-04-01T00:51:39;28.77;;;12.83;;
6344;SDS011;3205;42.666;23.264;2023-04-01T00:54:07;40.17;;;13.80;;
6344;SDS011;3205;42.666;23.264;2023-04-01T00:56:36;25.67;;;12.63;;
6344;SDS011;3205;42.666;23.264;2023-04-01T00:59:06;28.63;;;11.60;;
6344;SDS011;3205;42.666;23.264;2023-04-01T01:01:36;28.40;;;11.73;;
6344;SDS011;3205;42.666;23.264;2023-04-01T01:04:03;27.47;;;11.93;;
6344;SDS011;3205;42.666;23.264;2023-04-01T01:06:33;26.30;;;12.33;;
6344;SDS011;3205;42.666;23.264;2023-04-01T01:09:12;21.47;;;10.43;;
6344;SDS011;3205;42.666;23.264;2023-04-01T01:11:52;21.87;;;9.97;;
6344;SDS011;3205;42.666;23.264;2023-04-01T01:14:27;23.77;;;10.07;;
6344;SDS011;3205;42.666;23.264;2023-04-01T01:17:06;19.53;;;8.97;;
6344;SDS011;3205;42.666;23.264;2023-04-01T01:19:49;24.10;;;9.60;;
6344;SDS011;3205;42.666;23.264;2023-04-01T01:22:34;17.97;;;8.27;;
6344;SDS011;3205;42.666;23.264;2023-04-01T01:25:16;19.10;;;7.80;;
6344;SDS011;3205;42.666;23.264;2023-04-01T01:27:54;19.50;;;8.50;;
6344;SDS011;3205;42.666;23.264;2023-04-01T01:30:35;16.90;;;8.73;;
6344;SDS011;3205;42.666;23.264;2023-04-01T01:33:13;14.87;;;6.93;;
6344;SDS011;3205;42.666;23.264;2023-04-01T01:35:51;11.30;;;5.53;;
6344;SDS011;3205;42.666;23.264;2023-04-01T01:38:21;12.83;;;6.27;;
6344;SDS011;3205;42.666;23.264;2023-04-01T01:40:50;13.63;;;6.30;;
6344;SDS011;3205;42.666;23.264;2023-04-01T01:43:19;14.00;;;5.90;;
6344;SDS011;3205;42.666;23.264;2023-04-01T01:45:49;10.83;;;6.20;;
6344;SDS011;3205;42.666;23.264;2023-04-01T01:48:19;19.87;;;7.67;;
6344;SDS011;3205;42.666;23.264;2023-04-01T01:50:46;24.83;;;7.37;;
6344;SDS011;3205;42.666;23.264;2023-04-01T01:53:15;15.57;;;5.87;;
6344;SDS011;3205;42.666;23.264;2023-04-01T01:55:42;16.53;;;6.73;;
6344;SDS011;3205;42.666;23.264;2023-04-01T01:58:10;10.93;;;5.80;;
6344;SDS011;3205;42.666;23.264;2023-04-01T02:00:40;15.77;;;5.90;;
6344;SDS011;3205;42.666;23.264;2023-04-01T02:05:57;10.57;;;4.77;;
6344;SDS011;3205;42.666;23.264;2023-04-01T02:08:27;6.90;;;4.10;;
6344;SDS011;3205;42.666;23.264;2023-04-01T02:10:57;8.97;;;4.03;;
6344;SDS011;3205;42.666;23.264;2023-04-01T02:13:29;10.43;;;4.20;;
6344;SDS011;3205;42.666;23.264;2023-04-01T02:16:02;9.93;;;4.90;;
6344;SDS011;3205;42.666;23.264;2023-04-01T02:18:33;12.77;;;4.97;;
6344;SDS011;3205;42.666;23.264;2023-04-01T02:21:00;11.50;;;4.53;;
6344;SDS011;3205;42.666;23.264;2023-04-01T02:23:30;9.03;;;4.60;;
6344;SDS011;3205;42.666;23.264;2023-04-01T02:25:58;13.73;;;4.80;;
6344;SDS011;3205;42.666;23.264;2023-04-01T02:28:25;11.73;;;4.63;;
6344;SDS011;3205;42.666;23.264;2023-04-01T02:30:52;10.77;;;5.13;;
6344;SDS011;3205;42.666;23.264;2023-04-01T02:33:19;21.50;;;6.40;;
6344;SDS011;3205;42.666;23.264;2023-04-01T02:35:46;13.63;;;5.47;;
6344;SDS011;3205;42.666;23.264;2023-04-01T02:38:12;14.97;;;5.53;;
6344;SDS011;3205;42.666;23.264;2023-04-01T02:40:42;12.53;;;6.13;;
6344;SDS011;3205;42.666;23.264;2023-04-01T02:43:10;14.10;;;6.07;;
6344;SDS011;3205;42.666;23.264;2023-04-01T02:45:36;12.30;;;6.27;;
6344;SDS011;3205;42.666;23.264;2023-04-01T02:48:02;13.80;;;7.10;;
6344;SDS011;3205;42.666;23.264;2023-04-01T02:50:29;18.73;;;5.67;;
6344;SDS011;3205;42.666;23.264;2023-04-01T02:52:55;8.50;;;4.60;;
6344;SDS011;3205;42.666;23.264;2023-04-01T02:55:21;16.97;;;6.03;;
6344;SDS011;3205;42.666;23.264;2023-04-01T02:57:48;19.13;;;5.60;;
6344;SDS011;3205;42.666;23.264;2023-04-01T03:00:15;16.07;;;5.57;;
6344;SDS011;3205;42.666;23.264;2023-04-01T03:02:42;21.27;;;6.67;;
6344;SDS011;3205;42.666;23.264;2023-04-01T03:05:09;23.00;;;6.40;;
6344;SDS011;3205;42.666;23.264;2023-04-01T03:07:35;17.43;;;6.23;;
6344;SDS011;3205;42.666;23.264;2023-04-01T03:10:01;14.63;;;6.13;;
6344;SDS011;3205;42.666;23.264;2023-04-01T03:12:28;16.70;;;5.70;;
6344;SDS011;3205;42.666;23.264;2023-04-01T03:14:54;11.33;;;5.10;;
6344;SDS011;3205;42.666;23.264;2023-04-01T03:17:20;15.33;;;5.70;;
6344;SDS011;3205;42.666;23.264;2023-04-01T03:19:46;19.50;;;6.90;;
6344;SDS011;3205;42.666;23.264;2023-04-01T03:22:13;15.67;;;6.60;;
6344;SDS011;3205;42.666;23.264;2023-04-01T03:24:39;15.67;;;5.97;;
6344;SDS011;3205;42.666;23.264;2023-04-01T03:27:05;14.97;;;6.60;;
6344;SDS011;3205;42.666;23.264;2023-04-01T03:29:31;12.77;;;6.77;;
6344;SDS011;3205;42.666;23.264;2023-04-01T03:31:58;15.63;;;5.30;;
6344;SDS011;3205;42.666;23.264;2023-04-01T03:34:27;8.43;;;4.93;;
6344;SDS011;3205;42.666;23.264;2023-04-01T03:36:53;7.93;;;4.03;;
6344;SDS011;3205;42.666;23.264;2023-04-01T03:39:20;6.67;;;3.20;;
6344;SDS011;3205;42.666;23.264;2023-04-01T03:41:46;7.27;;;3.13;;
6344;SDS011;3205;42.666;23.264;2023-04-01T03:44:12;11.77;;;4.27;;
6344;SDS011;3205;42.666;23.264;2023-04-01T03:46:38;8.27;;;3.80;;
6344;SDS011;3205;42.666;23.264;2023-04-01T03:49:06;14.30;;;4.47;;
6344;SDS011;3205;42.666;23.264;2023-04-01T03:51:36;10.93;;;4.23;;
6344;SDS011;3205;42.666;23.264;2023-04-01T03:54:03;11.77;;;5.33;;
6344;SDS011;3205;42.666;23.264;2023-04-01T03:56:29;11.03;;;5.07;;
6344;SDS011;3205;42.666;23.264;2023-04-01T03:58:55;12.53;;;6.13;;
6344;SDS011;3205;42.666;23.264;2023-04-01T04:01:21;9.50;;;5.00;;
6344;SDS011;3205;42.666;23.264;2023-04-01T04:03:48;7.83;;;4.93;;
6344;SDS011;3205;42.666;23.264;2023-04-01T04:06:16;15.20;;;5.60;;
6344;SDS011;3205;42.666;23.264;2023-04-01T04:08:46;10.97;;;5.00;;
6344;SDS011;3205;42.666;23.264;2023-04-01T04:11:12;10.03;;;3.57;;
6344;SDS011;3205;42.666;23.264;2023-04-01T04:13:38;15.13;;;4.23;;
6344;SDS011;3205;42.666;23.264;2023-04-01T04:16:05;10.77;;;4.00;;
6344;SDS011;3205;42.666;23.264;2023-04-01T04:18:31;8.40;;;4.57;;
6344;SDS011;3205;42.666;23.264;2023-04-01T04:20:57;9.70;;;4.50;;
6344;SDS011;3205;42.666;23.264;2023-04-01T04:23:24;11.13;;;4.87;;
6344;SDS011;3205;42.666;23.264;2023-04-01T04:25:54;13.37;;;5.17;;
6344;SDS011;3205;42.666;23.264;2023-04-01T04:28:22;13.70;;;5.57;;
6344;SDS011;3205;42.666;23.264;2023-04-01T04:30:50;9.23;;;5.83;;
6344;SDS011;3205;42.666;23.264;2023-04-01T04:33:16;17.33;;;7.00;;
6344;SDS011;3205;42.666;23.264;2023-04-01T04:35:42;25.13;;;7.23;;
6344;SDS011;3205;42.666;23.264;2023-04-01T04:38:09;17.27;;;7.63;;
6344;SDS011;3205;42.666;23.264;2023-04-01T04:40:36;15.23;;;7.37;;
6344;SDS011;3205;42.666;23.264;2023-04-01T04:43:02;20.53;;;8.10;;
6344;SDS011;3205;42.666;23.264;2023-04-01T04:45:28;22.13;;;8.50;;
6344;SDS011;3205;42.666;23.264;2023-04-01T04:47:55;19.03;;;8.63;;
6344;SDS011;3205;42.666;23.264;2023-04-01T04:50:21;17.00;;;8.40;;
6344;SDS011;3205;42.666;23.264;2023-04-01T04:52:48;16.03;;;8.50;;
6344;SDS011;3205;42.666;23.264;2023-04-01T04:55:14;19.60;;;8.73;;
6344;SDS011;3205;42.666;23.264;2023-04-01T04:57:41;15.33;;;8.00;;
6344;SDS011;3205;42.666;23.264;2023-04-01T05:00:08;22.93;;;9.10;;
6344;SDS011;3205;42.666;23.264;2023-04-01T05:02:35;21.27;;;9.40;;
6344;SDS011;3205;42.666;23.264;2023-04-01T05:05:01;18.80;;;8.93;;
6344;SDS011;3205;42.666;23.264;2023-04-01T05:07:27;16.83;;;8.07;;
6344;SDS011;3205;42.666;23.264;2023-04-01T05:09:53;18.10;;;8.30;;
6344;SDS011;3205;42.666;23.264;2023-04-01T05:12:20;24.07;;;7.93;;
6344;SDS011;3205;42.666;23.264;2023-04-01T05:14:46;16.73;;;9.00;;
6344;SDS011;3205;42.666;23.264;2023-04-01T05:17:13;17.90;;;8.70;;
6344;SDS011;3205;42.666;23.264;2023-04-01T05:19:39;16.67;;;8.27;;
6344;SDS011;3205;42.666;23.264;2023-04-01T05:22:05;14.93;;;8.20;;
6344;SDS011;3205;42.666;23.264;2023-04-01T05:24:32;13.30;;;6.90;;
6344;SDS011;3205;42.666;23.264;2023-04-01T05:26:58;14.57;;;5.30;;
6344;SDS011;3205;42.666;23.264;2023-04-01T05:29:25;13.97;;;6.23;;
6344;SDS011;3205;42.666;23.264;2023-04-01T05:31:52;19.93;;;8.90;;
6344;SDS011;3205;42.666;23.264;2023-04-01T05:34:18;22.73;;;10.03;;
6344;SDS011;3205;42.666;23.264;2023-04-01T05:36:44;25.83;;;9.27;;
6344;SDS011;3205;42.666;23.264;2023-04-01T05:39:10;27.10;;;8.68;;
6344;SDS011;3205;42.666;23.264;2023-04-01T05:41:37;23.73;;;10.55;;
6344;SDS011;3205;42.666;23.264;2023-04-01T05:44:04;13.35;;;7.68;;
6344;SDS011;3205;42.666;23.264;2023-04-01T05:46:30;14.05;;;6.85;;
6344;SDS011;3205;42.666;23.264;2023-04-01T05:48:57;14.68;;;6.28;;
6344;SDS011;3205;42.666;23.264;2023-04-01T05:51:23;17.02;;;6.80;;
6344;SDS011;3205;42.666;23.264;2023-04-01T05:53:49;14.00;;;6.57;;
6344;SDS011;3205;42.666;23.264;2023-04-01T05:56:16;13.57;;;6.60;;
6344;SDS011;3205;42.666;23.264;2023-04-01T05:58:42;19.17;;;8.50;;
6344;SDS011;3205;42.666;23.264;2023-04-01T06:01:08;13.48;;;6.32;;
6344;SDS011;3205;42.666;23.264;2023-04-01T06:03:36;21.52;;;10.35;;
6344;SDS011;3205;42.666;23.264;2023-04-01T06:06:03;11.90;;;5.57;;
6344;SDS011;3205;42.666;23.264;2023-04-01T06:08:30;21.05;;;5.57;;
6344;SDS011;3205;42.666;23.264;2023-04-01T06:11:03;12.45;;;4.93;;
6344;SDS011;3205;42.666;23.264;2023-04-01T06:13:44;12.88;;;5.35;;
6344;SDS011;3205;42.666;23.264;2023-04-01T06:16:27;11.68;;;5.25;;
6344;SDS011;3205;42.666;23.264;2023-04-01T06:19:05;12.27;;;5.93;;
6344;SDS011;3205;42.666;23.264;2023-04-01T06:21:48;13.73;;;5.57;;
6344;SDS011;3205;42.666;23.264;2023-04-01T06:24:57;22.45;;;5.15;;
6344;SDS011;3205;42.666;23.264;2023-04-01T06:27:45;16.92;;;5.45;;
6344;SDS011;3205;42.666;23.264;2023-04-01T06:30:37;25.35;;;5.40;;
6344;SDS011;3205;42.666;23.264;2023-04-01T06:36:08;16.38;;;5.60;;
6344;SDS011;3205;42.666;23.264;2023-04-01T06:38:58;13.23;;;5.40;;
6344;SDS011;3205;42.666;23.264;2023-04-01T06:44:37;7.28;;;4.45;;
6344;SDS011;3205;42.666;23.264;2023-04-01T06:47:20;8.45;;;4.05;;
6344;SDS011;3205;42.666;23.264;2023-04-01T06:49:56;17.00;;;5.10;;
6344;SDS011;3205;42.666;23.264;2023-04-01T06:52:33;13.35;;;5.05;;
6344;SDS011;3205;42.666;23.264;2023-04-01T06:55:16;15.02;;;4.28;;
6344;SDS011;3205;42.666;23.264;2023-04-01T06:57:50;7.97;;;4.60;;
6344;SDS011;3205;42.666;23.264;2023-04-01T07:00:22;11.82;;;4.38;;
6344;SDS011;3205;42.666;23.264;2023-04-01T07:02:54;11.95;;;4.15;;
6344;SDS011;3205;42.666;23.264;2023-04-01T07:05:28;12.30;;;4.47;;
6344;SDS011;3205;42.666;23.264;2023-04-01T07:07:57;11.95;;;4.25;;
6344;SDS011;3205;42.666;23.264;2023-04-01T07:10:31;13.68;;;4.85;;
6344;SDS011;3205;42.666;23.264;2023-04-01T07:13:02;8.37;;;4.43;;
6344;SDS011;3205;42.666;23.264;2023-04-01T07:15:36;7.28;;;3.90;;
6344;SDS011;3205;42.666;23.264;2023-04-01T07:18:09;8.90;;;4.63;;
6344;SDS011;3205;42.666;23.264;2023-04-01T07:20:39;7.55;;;4.85;;
6344;SDS011;3205;42.666;23.264;2023-04-01T07:23:05;13.77;;;4.47;;
6344;SDS011;3205;42.666;23.264;2023-04-01T07:25:43;10.45;;;4.47;;
6344;SDS011;3205;42.666;23.264;2023-04-01T07:28:13;13.10;;;4.65;;
6344;SDS011;3205;42.666;23.264;2023-04-01T07:30:44;9.20;;;4.47;;
6344;SDS011;3205;42.666;23.264;2023-04-01T07:33:19;8.50;;;4.57;;
6344;SDS011;3205;42.666;23.264;2023-04-01T07:35:52;8.40;;;4.13;;
6344;SDS011;3205;42.666;23.264;2023-04-01T07:38:27;11.05;;;4.53;;
6344;SDS011;3205;42.666;23.264;2023-04-01T07:41:08;8.65;;;4.43;;
6344;SDS011;3205;42.666;23.264;2023-04-01T07:43:41;7.57;;;4.57;;
6344;SDS011;3205;42.666;23.264;2023-04-01T07:46:23;9.27;;;4.80;;
6344;SDS011;3205;42.666;23.264;2023-04-01T07:49:11;11.07;;;4.05;;
6344;SDS011;3205;42.666;23.264;2023-04-01T07:51:43;9.38;;;3.88;;
6344;SDS011;3205;42.666;23.264;2023-04-01T07:54:16;10.57;;;4.40;;
6344;SDS011;3205;42.666;23.264;2023-04-01T07:56:51;7.50;;;4.10;;
6344;SDS011;3205;42.666;23.264;2023-04-01T07:59:24;10.75;;;4.40;;
6344;SDS011;3205;42.666;23.264;2023-04-01T08:01:57;22.42;;;5.25;;
6344;SDS011;3205;42.666;23.264;2023-04-01T08:04:36;14.60;;;4.55;;
6344;SDS011;3205;42.666;23.264;2023-04-01T08:07:13;9.35;;;4.70;;
6344;SDS011;3205;42.666;23.264;2023-04-01T08:09:44;11.05;;;4.25;;
6344;SDS011;3205;42.666;23.264;2023-04-01T08:12:17;9.50;;;4.18;;
6344;SDS011;3205;42.666;23.264;2023-04-01T08:14:53;10.60;;;4.20;;
6344;SDS011;3205;42.666;23.264;2023-04-01T08:17:28;12.90;;;4.47;;
6344;SDS011;3205;42.666;23.264;2023-04-01T08:20:07;12.15;;;4.90;;
6344;SDS011;3205;42.666;23.264;2023-04-01T08:22:45;7.53;;;3.85;;
6344;SDS011;3205;42.666;23.264;2023-04-01T08:25:16;9.90;;;4.32;;
6344;SDS011;3205;42.666;23.264;2023-04-01T08:27:47;10.98;;;4.63;;
6344;SDS011;3205;42.666;23.264;2023-04-01T08:30:20;11.65;;;5.25;;
6344;SDS011;3205;42.666;23.264;2023-04-01T08:32:49;15.20;;;6.10;;
6344;SDS011;3205;42.666;23.264;2023-04-01T08:35:24;14.90;;;6.07;;
6344;SDS011;3205;42.666;23.264;2023-04-01T08:37:54;17.08;;;5.88;;
6344;SDS011;3205;42.666;23.264;2023-04-01T08:40:30;14.68;;;5.22;;
6344;SDS011;3205;42.666;23.264;2023-04-01T08:43:07;15.27;;;4.85;;
6344;SDS011;3205;42.666;23.264;2023-04-01T08:45:45;10.70;;;5.25;;
6344;SDS011;3205;42.666;23.264;2023-04-01T08:48:27;16.73;;;5.68;;
6344;SDS011;3205;42.666;23.264;2023-04-01T08:54:26;9.05;;;4.63;;
6344;SDS011;3205;42.666;23.264;2023-04-01T08:57:07;10.95;;;4.03;;
6344;SDS011;3205;42.666;23.264;2023-04-01T08:59:47;9.43;;;4.00;;
6344;SDS011;3205;42.666;23.264;2023-04-01T09:02:25;15.50;;;3.72;;
6344;SDS011;3205;42.666;23.264;2023-04-01T09:05:24;14.20;;;3.90;;
6344;SDS011;3205;42.666;23.264;2023-04-01T09:08:02;6.80;;;3.75;;
6344;SDS011;3205;42.666;23.264;2023-04-01T09:10:40;19.30;;;3.60;;
6344;SDS011;3205;42.666;23.264;2023-04-01T09:13:30;13.02;;;3.75;;
6344;SDS011;3205;42.666;23.264;2023-04-01T09:16:15;8.73;;;3.70;;
6344;SDS011;3205;42.666;23.264;2023-04-01T09:18:58;13.35;;;3.47;;
6344;SDS011;3205;42.666;23.264;2023-04-01T09:21:38;8.85;;;4.38;;
6344;SDS011;3205;42.666;23.264;2023-04-01T09:27:10;15.77;;;4.65;;
6344;SDS011;3205;42.666;23.264;2023-04-01T09:30:01;8.25;;;3.63;;
6344;SDS011;3205;42.666;23.264;2023-04-01T09:32:59;12.23;;;3.30;;
6344;SDS011;3205;42.666;23.264;2023-04-01T09:35:48;9.38;;;2.50;;
6344;SDS011;3205;42.666;23.264;2023-04-01T09:38:27;9.43;;;2.58;;
6344;SDS011;3205;42.666;23.264;2023-04-01T09:40:56;6.40;;;2.10;;
6344;SDS011;3205;42.666;23.264;2023-04-01T09:43:27;4.53;;;2.20;;
6344;SDS011;3205;42.666;23.264;2023-04-01T09:46:04;9.00;;;2.70;;
6344;SDS011;3205;42.666;23.264;2023-04-01T09:48:46;6.75;;;2.13;;
6344;SDS011;3205;42.666;23.264;2023-04-01T09:51:37;8.32;;;2.10;;
6344;SDS011;3205;42.666;23.264;2023-04-01T09:54:20;7.03;;;2.20;;
6344;SDS011;3205;42.666;23.264;2023-04-01T10:00:26;8.05;;;2.10;;
6344;SDS011;3205;42.666;23.264;2023-04-01T10:03:30;10.27;;;2.17;;
6344;SDS011;3205;42.666;23.264;2023-04-01T10:09:28;8.00;;;2.33;;
6344;SDS011;3205;42.666;23.264;2023-04-01T10:12:31;7.28;;;2.00;;
6344;SDS011;3205;42.666;23.264;2023-04-01T10:24:40;8.52;;;2.97;;
6344;SDS011;3205;42.666;23.264;2023-04-01T10:27:47;8.23;;;2.80;;
6344;SDS011;3205;42.666;23.264;2023-04-01T10:30:37;8.10;;;3.03;;
6344;SDS011;3205;42.666;23.264;2023-04-01T10:33:31;9.05;;;3.05;;
6344;SDS011;3205;42.666;23.264;2023-04-01T10:36:29;8.05;;;2.72;;
6344;SDS011;3205;42.666;23.264;2023-04-01T10:49:00;13.02;;;2.38;;
6344;SDS011;3205;42.666;23.264;2023-04-01T10:55:14;10.10;;;2.65;;
6344;SDS011;3205;42.666;23.264;2023-04-01T11:13:25;6.47;;;2.10;;
6344;SDS011;3205;42.666;23.264;2023-04-01T11:16:26;6.70;;;2.10;;
6344;SDS011;3205;42.666;23.264;2023-04-01T11:19:29;6.90;;;2.13;;
6344;SDS011;3205;42.666;23.264;2023-04-01T11:31:14;6.93;;;2.70;;
6344;SDS011;3205;42.666;23.264;2023-04-01T11:33:49;8.93;;;2.67;;
6344;SDS011;3205;42.666;23.264;2023-04-01T11:36:25;12.57;;;2.30;;
6344;SDS011;3205;42.666;23.264;2023-04-01T11:39:07;6.30;;;2.50;;
6344;SDS011;3205;42.666;23.264;2023-04-01T11:41:46;7.43;;;2.50;;
6344;SDS011;3205;42.666;23.264;2023-04-01T11:44:18;14.00;;;2.58;;
6344;SDS011;3205;42.666;23.264;2023-04-01T11:46:54;5.10;;;2.40;;
6344;SDS011;3205;42.666;23.264;2023-04-01T11:49:42;7.93;;;2.60;;
6344;SDS011;3205;42.666;23.264;2023-04-01T11:52:18;11.60;;;2.50;;
6344;SDS011;3205;42.666;23.264;2023-04-01T11:54:56;6.87;;;2.10;;
6344;SDS011;3205;42.666;23.264;2023-04-01T11:57:38;9.20;;;3.17;;
6344;SDS011;3205;42.666;23.264;2023-04-01T12:00:17;9.10;;;2.93;;
6344;SDS011;3205;42.666;23.264;2023-04-01T12:03:02;10.67;;;3.73;;
6344;SDS011;3205;42.666;23.264;2023-04-01T12:05:43;10.37;;;3.20;;
6344;SDS011;3205;42.666;23.264;2023-04-01T12:08:21;5.77;;;3.30;;
6344;SDS011;3205;42.666;23.264;2023-04-01T12:10:58;12.37;;;4.10;;
6344;SDS011;3205;42.666;23.264;2023-04-01T12:13:31;11.43;;;3.80;;
6344;SDS011;3205;42.666;23.264;2023-04-01T12:16:13;10.90;;;3.37;;
6344;SDS011;3205;42.666;23.264;2023-04-01T12:18:53;9.73;;;4.00;;
6344;SDS011;3205;42.666;23.264;2023-04-01T12:21:25;11.30;;;4.57;;
6344;SDS011;3205;42.666;23.264;2023-04-01T12:24:03;14.03;;;4.43;;
6344;SDS011;3205;42.666;23.264;2023-04-01T12:26:47;13.87;;;4.00;;
6344;SDS011;3205;42.666;23.264;2023-04-01T12:29:32;5.27;;;3.23;;
6344;SDS011;3205;42.666;23.264;2023-04-01T12:32:17;12.00;;;3.20;;
6344;SDS011;3205;42.666;23.264;2023-04-01T12:34:56;5.67;;;3.23;;
6344;SDS011;3205;42.666;23.264;2023-04-01T12:37:39;7.03;;;3.40;;
6344;SDS011;3205;42.666;23.264;2023-04-01T12:40:28;6.13;;;3.10;;
6344;SDS011;3205;42.666;23.264;2023-04-01T12:43:10;10.43;;;4.00;;
6344;SDS011;3205;42.666;23.264;2023-04-01T12:45:51;9.10;;;3.10;;
6344;SDS011;3205;42.666;23.264;2023-04-01T12:48:42;4.63;;;2.70;;
6344;SDS011;3205;42.666;23.264;2023-04-01T12:51:37;11.43;;;3.97;;
6344;SDS011;3205;42.666;23.264;2023-04-01T12:57:34;8.20;;;3.90;;
6344;SDS011;3205;42.666;23.264;2023-04-01T13:00:22;10.97;;;4.60;;
6344;SDS011;3205;42.666;23.264;2023-04-01T13:03:02;14.67;;;5.70;;
6344;SDS011;3205;42.666;23.264;2023-04-01T13:05:52;11.93;;;5.47;;
6344;SDS011;3205;42.666;23.264;2023-04-01T13:08:40;9.37;;;3.93;;
6344;SDS011;3205;42.666;23.264;2023-04-01T13:11:15;11.23;;;3.63;;
6344;SDS011;3205;42.666;23.264;2023-04-01T13:16:48;11.17;;;3.73;;
6344;SDS011;3205;42.666;23.264;2023-04-01T13:19:24;5.73;;;2.93;;
6344;SDS011;3205;42.666;23.264;2023-04-01T13:22:02;6.37;;;3.33;;
6344;SDS011;3205;42.666;23.264;2023-04-01T13:24:39;4.23;;;1.57;;
6344;SDS011;3205;42.666;23.264;2023-04-01T13:27:12;5.23;;;3.00;;
6344;SDS011;3205;42.666;23.264;2023-04-01T13:29:43;2.33;;;1.57;;
6344;SDS011;3205;42.666;23.264;2023-04-01T13:32:19;3.93;;;1.40;;
6344;SDS011;3205;42.666;23.264;2023-04-01T13:34:54;2.93;;;1.77;;
6344;SDS011;3205;42.666;23.264;2023-04-01T13:37:34;4.73;;;2.13;;
6344;SDS011;3205;42.666;23.264;2023-04-01T13:40:17;4.63;;;1.93;;
6344;SDS011;3205;42.666;23.264;2023-04-01T13:42:53;3.10;;;1.50;;
6344;SDS011;3205;42.666;23.264;2023-04-01T13:45:23;1.50;;;1.13;;
6344;SDS011;3205;42.666;23.264;2023-04-01T13:48:02;1.97;;;1.13;;
6344;SDS011;3205;42.666;23.264;2023-04-01T13:53:57;2.00;;;1.60;;
6344;SDS011;3205;42.666;23.264;2023-04-01T13:56:37;1.47;;;0.90;;
6344;SDS011;3205;42.666;23.264;2023-04-01T14:02:20;1.47;;;1.37;;
6344;SDS011;3205;42.666;23.264;2023-04-01T14:05:04;1.83;;;1.37;;
6344;SDS011;3205;42.666;23.264;2023-04-01T14:07:48;2.33;;;1.90;;
6344;SDS011;3205;42.666;23.264;2023-04-01T14:10:30;1.77;;;1.40;;
6344;SDS011;3205;42.666;23.264;2023-04-01T14:13:06;2.03;;;1.20;;
6344;SDS011;3205;42.666;23.264;2023-04-01T14:18:33;1.80;;;1.10;;
6344;SDS011;3205;42.666;23.264;2023-04-01T14:21:10;2.00;;;1.23;;
6344;SDS011;3205;42.666;23.264;2023-04-01T14:23:49;2.20;;;1.47;;
6344;SDS011;3205;42.666;23.264;2023-04-01T14:30:01;2.53;;;1.53;;
6344;SDS011;3205;42.666;23.264;2023-04-01T14:32:44;1.83;;;1.10;;
6344;SDS011;3205;42.666;23.264;2023-04-01T14:35:21;3.00;;;1.33;;
6344;SDS011;3205;42.666;23.264;2023-04-01T14:38:04;1.27;;;1.10;;
6344;SDS011;3205;42.666;23.264;2023-04-01T14:40:52;3.47;;;1.40;;
6344;SDS011;3205;42.666;23.264;2023-04-01T14:43:36;1.60;;;1.50;;
6344;SDS011;3205;42.666;23.264;2023-04-01T14:49:32;3.20;;;1.07;;
6344;SDS011;3205;42.666;23.264;2023-04-01T14:52:04;5.00;;;1.13;;
6344;SDS011;3205;42.666;23.264;2023-04-01T14:54:35;1.77;;;0.90;;
6344;SDS011;3205;42.666;23.264;2023-04-01T14:57:05;6.13;;;1.40;;
6344;SDS011;3205;42.666;23.264;2023-04-01T14:59:39;2.97;;;1.33;;
6344;SDS011;3205;42.666;23.264;2023-04-01T15:02:08;0.90;;;0.90;;
6344;SDS011;3205;42.666;23.264;2023-04-01T15:04:47;2.25;;;1.50;;
6344;SDS011;3205;42.666;23.264;2023-04-01T15:07:42;5.17;;;1.30;;
6344;SDS011;3205;42.666;23.264;2023-04-01T15:10:40;4.43;;;1.07;;
6344;SDS011;3205;42.666;23.264;2023-04-01T15:13:24;2.60;;;1.43;;
6344;SDS011;3205;42.666;23.264;2023-04-01T15:16:15;4.03;;;1.60;;
6344;SDS011;3205;42.666;23.264;2023-04-01T15:18:50;2.20;;;1.70;;
6344;SDS011;3205;42.666;23.264;2023-04-01T15:21:29;4.95;;;2.97;;
6344;SDS011;3205;42.666;23.264;2023-04-01T15:24:15;10.40;;;2.67;;
6344;SDS011;3205;42.666;23.264;2023-04-01T15:26:53;4.53;;;2.05;;
6344;SDS011;3205;42.666;23.264;2023-04-01T15:29:39;2.33;;;1.27;;
6344;SDS011;3205;42.666;23.264;2023-04-01T15:32:17;8.85;;;1.65;;
6344;SDS011;3205;42.666;23.264;2023-04-01T15:34:50;4.83;;;2.10;;
6344;SDS011;3205;42.666;23.264;2023-04-01T15:37:26;3.27;;;1.60;;
6344;SDS011;3205;42.666;23.264;2023-04-01T15:40:07;4.47;;;1.50;;
6344;SDS011;3205;42.666;23.264;2023-04-01T15:42:46;3.70;;;2.00;;
6344;SDS011;3205;42.666;23.264;2023-04-01T15:45:28;10.37;;;2.17;;
6344;SDS011;3205;42.666;23.264;2023-04-01T15:48:01;5.40;;;1.77;;
6344;SDS011;3205;42.666;23.264;2023-04-01T15:50:46;2.10;;;1.30;;
6344;SDS011;3205;42.666;23.264;2023-04-01T15:53:46;4.20;;;1.30;;
6344;SDS011;3205;42.666;23.264;2023-04-01T15:56:41;5.63;;;1.50;;
6344;SDS011;3205;42.666;23.264;2023-04-01T15:59:19;7.00;;;1.83;;
6344;SDS011;3205;42.666;23.264;2023-04-01T16:01:56;6.17;;;1.60;;
6344;SDS011;3205;42.666;23.264;2023-04-01T16:04:37;2.53;;;1.57;;
6344;SDS011;3205;42.666;23.264;2023-04-01T16:07:23;2.67;;;1.03;;
6344;SDS011;3205;42.666;23.264;2023-04-01T16:10:03;2.37;;;1.67;;
6344;SDS011;3205;42.666;23.264;2023-04-01T16:12:38;1.70;;;1.60;;
6344;SDS011;3205;42.666;23.264;2023-04-01T16:15:17;4.00;;;2.60;;
6344;SDS011;3205;42.666;23.264;2023-04-01T16:20:49;4.57;;;2.70;;
6344;SDS011;3205;42.666;23.264;2023-04-01T16:23:20;3.77;;;2.07;;
6344;SDS011;3205;42.666;23.264;2023-04-01T16:25:55;4.17;;;2.27;;
6344;SDS011;3205;42.666;23.264;2023-04-01T16:28:29;3.03;;;2.47;;
6344;SDS011;3205;42.666;23.264;2023-04-01T16:30:59;4.10;;;2.37;;
6344;SDS011;3205;42.666;23.264;2023-04-01T16:33:32;3.40;;;2.40;;
6344;SDS011;3205;42.666;23.264;2023-04-01T16:36:08;3.00;;;2.17;;
6344;SDS011;3205;42.666;23.264;2023-04-01T16:38:40;7.93;;;3.27;;
6344;SDS011;3205;42.666;23.264;2023-04-01T16:41:17;5.07;;;3.20;;
6344;SDS011;3205;42.666;23.264;2023-04-01T16:43:46;4.43;;;3.07;;
6344;SDS011;3205;42.666;23.264;2023-04-01T16:46:32;2.80;;;1.80;;
6344;SDS011;3205;42.666;23.264;2023-04-01T16:49:17;3.47;;;2.07;;
6344;SDS011;3205;42.666;23.264;2023-04-01T16:51:57;5.80;;;2.73;;
6344;SDS011;3205;42.666;23.264;2023-04-01T16:54:35;4.60;;;2.60;;
6344;SDS011;3205;42.666;23.264;2023-04-01T16:57:12;6.47;;;3.27;;
6344;SDS011;3205;42.666;23.264;2023-04-01T16:59:45;2.47;;;1.90;;
6344;SDS011;3205;42.666;23.264;2023-04-01T17:02:17;3.63;;;1.50;;
6344;SDS011;3205;42.666;23.264;2023-04-01T17:04:51;2.53;;;1.33;;
6344;SDS011;3205;42.666;23.264;2023-04-01T17:07:23;1.73;;;1.63;;
6344;SDS011;3205;42.666;23.264;2023-04-01T17:10:10;1.97;;;1.47;;
6344;SDS011;3205;42.666;23.264;2023-04-01T17:13:03;2.10;;;1.90;;